sensor_id;sensor_type;location;lat;lon;timestamp;pressure;altitude;pressure_sealevel;temperature;humidity
22000;BME280;11164;48.818;2.322;2023-09-12T00:01:06;100314.91;;;24.39;37.32
22000;BME280;11164;48.818;2.322;2023-09-12T00:03:32;100307.16;;;24.22;37.56
22000;BME280;11164;48.818;2.322;2023-09-12T00:05:59;100315.94;;;24.24;37.69
22000;BME280;11164;48.818;2.322;2023-09-12T00:08:25;100315.28;;;24.32;37.57
22000;BME280;11164;48.818;2.322;2023-09-12T00:11:07;100305.44;;;24.45;38.18
22000;BME280;11164;48.818;2.322;2023-09-12T00:13:35;100305.97;;;24.47;37.26
22000;BME280;11164;48.818;2.322;2023-09-12T00:16:01;100289.59;;;24.37;37.35
22000;BME280;11164;48.818;2.322;2023-09-12T00:18:27;100304.25;;;24.32;37.77
22000;BME280;11164;48.818;2.322;2023-09-12T00:20:52;100302.44;;;24.42;37.43
22000;BME280;11164;48.818;2.322;2023-09-12T00:23:18;100297.78;;;24.61;37.34
22000;BME280;11164;48.818;2.322;2023-09-12T00:25:43;100300.97;;;24.68;37.14
22000;BME280;11164;48.818;2.322;2023-09-12T00:28:09;100299.66;;;24.80;37.09
22000;BME280;11164;48.818;2.322;2023-09-12T00:30:34;100303.31;;;24.61;37.27
22000;BME280;11164;48.818;2.322;2023-09-12T00:32:59;100313.03;;;24.53;37.82
22000;BME280;11164;48.818;2.322;2023-09-12T00:35:25;100307.88;;;24.47;37.65
22000;BME280;11164;48.818;2.322;2023-09-12T00:37:50;100306.41;;;24.35;37.77
22000;BME280;11164;48.818;2.322;2023-09-12T00:40:15;100306.19;;;24.32;38.02
22000;BME280;11164;48.818;2.322;2023-09-12T00:42:40;100309.09;;;24.22;38.29
22000;BME280;11164;48.818;2.322;2023-09-12T00:45:06;100304.09;;;24.24;37.94
22000;BME280;11164;48.818;2.322;2023-09-12T00:47:32;100305.97;;;24.28;37.80
22000;BME280;11164;48.818;2.322;2023-09-12T00:49:58;100301.88;;;24.26;38.12
22000;BME280;11164;48.818;2.322;2023-09-12T00:52:25;100298.31;;;24.06;38.60
22000;BME280;11164;48.818;2.322;2023-09-12T00:54:51;100298.31;;;24.06;38.55
22000;BME280;11164;48.818;2.322;2023-09-12T00:57:17;100306.41;;;23.97;38.85
22000;BME280;11164;48.818;2.322;2023-09-12T00:59:43;100304.97;;;24.00;38.69
22000;BME280;11164;48.818;2.322;2023-09-12T01:02:09;100296.13;;;24.03;38.77
22000;BME280;11164;48.818;2.322;2023-09-12T01:04:36;100296.44;;;24.02;39.05
22000;BME280;11164;48.818;2.322;2023-09-12T01:07:04;100295.91;;;23.99;38.94
22000;BME280;11164;48.818;2.322;2023-09-12T01:09:30;100306.13;;;23.99;38.71
22000;BME280;11164;48.818;2.322;2023-09-12T01:11:56;100296.66;;;23.81;39.50
22000;BME280;11164;48.818;2.322;2023-09-12T01:14:21;100302.84;;;23.73;39.18
22000;BME280;11164;48.818;2.322;2023-09-12T01:16:46;100296.09;;;23.60;39.43
22000;BME280;11164;48.818;2.322;2023-09-12T01:19:12;100299.31;;;23.48;39.64
22000;BME280;11164;48.818;2.322;2023-09-12T01:29:43;100269.03;;;23.91;38.99
22000;BME280;11164;48.818;2.322;2023-09-12T01:32:11;100282.44;;;23.98;38.92
22000;BME280;11164;48.818;2.322;2023-09-12T01:34:37;100289.59;;;23.99;39.25
22000;BME280;11164;48.818;2.322;2023-09-12T01:37:02;100298.53;;;23.86;39.16
22000;BME280;11164;48.818;2.322;2023-09-12T01:39:28;100301.81;;;23.88;39.45
22000;BME280;11164;48.818;2.322;2023-09-12T01:41:54;100313.03;;;23.72;39.50
22000;BME280;11164;48.818;2.322;2023-09-12T01:44:20;100308.94;;;23.70;39.68
22000;BME280;11164;48.818;2.322;2023-09-12T01:46:48;100301.78;;;23.69;39.79
22000;BME280;11164;48.818;2.322;2023-09-12T01:49:15;100300.22;;;23.63;39.98
22000;BME280;11164;48.818;2.322;2023-09-12T01:51:43;100288.75;;;23.55;39.68
22000;BME280;11164;48.818;2.322;2023-09-12T01:54:09;100298.56;;;23.61;40.01
22000;BME280;11164;48.818;2.322;2023-09-12T01:56:35;100300.34;;;23.52;40.15
22000;BME280;11164;48.818;2.322;2023-09-12T01:59:00;100299.13;;;23.39;40.52
22000;BME280;11164;48.818;2.322;2023-09-12T02:01:27;100306.06;;;23.32;40.30
22000;BME280;11164;48.818;2.322;2023-09-12T02:03:52;100292.72;;;23.44;40.30
22000;BME280;11164;48.818;2.322;2023-09-12T02:06:18;100299.16;;;23.58;39.83
22000;BME280;11164;48.818;2.322;2023-09-12T02:08:43;100307.66;;;23.62;40.01
22000;BME280;11164;48.818;2.322;2023-09-12T02:11:08;100299.47;;;23.57;40.20
22000;BME280;11164;48.818;2.322;2023-09-12T02:13:34;100304.59;;;23.64;40.16
22000;BME280;11164;48.818;2.322;2023-09-12T02:16:01;100302.28;;;23.52;40.41
22000;BME280;11164;48.818;2.322;2023-09-12T02:18:27;100293.31;;;23.41;40.43
22000;BME280;11164;48.818;2.322;2023-09-12T02:20:53;100293.97;;;23.33;40.77
22000;BME280;11164;48.818;2.322;2023-09-12T02:23:18;100287.41;;;23.23;41.02
22000;BME280;11164;48.818;2.322;2023-09-12T02:25:43;100292.09;;;23.23;40.71
22000;BME280;11164;48.818;2.322;2023-09-12T02:28:08;100294.91;;;23.18;41.12
22000;BME280;11164;48.818;2.322;2023-09-12T02:30:34;100293.16;;;23.27;40.79
22000;BME280;11164;48.818;2.322;2023-09-12T02:32:59;100298.69;;;23.22;40.74
22000;BME280;11164;48.818;2.322;2023-09-12T02:35:25;100298.09;;;23.30;40.71
22000;BME280;11164;48.818;2.322;2023-09-12T02:37:52;100290.88;;;23.39;40.95
22000;BME280;11164;48.818;2.322;2023-09-12T02:40:17;100289.69;;;23.46;40.93
22000;BME280;11164;48.818;2.322;2023-09-12T02:42:43;100299.69;;;23.36;41.01
22000;BME280;11164;48.818;2.322;2023-09-12T02:45:08;100294.03;;;23.28;40.85
22000;BME280;11164;48.818;2.322;2023-09-12T02:47:34;100285.78;;;23.28;41.34
22000;BME280;11164;48.818;2.322;2023-09-12T02:49:59;100284.91;;;23.03;41.78
22000;BME280;11164;48.818;2.322;2023-09-12T02:52:24;100287.56;;;22.84;41.84
22000;BME280;11164;48.818;2.322;2023-09-12T02:54:50;100286.53;;;23.04;41.76
22000;BME280;11164;48.818;2.322;2023-09-12T02:57:15;100286.00;;;23.02;41.90
22000;BME280;11164;48.818;2.322;2023-09-12T02:59:40;100282.28;;;22.88;41.73
22000;BME280;11164;48.818;2.322;2023-09-12T03:02:06;100276.59;;;22.79;41.66
22000;BME280;11164;48.818;2.322;2023-09-12T03:04:34;100283.28;;;22.97;41.56
22000;BME280;11164;48.818;2.322;2023-09-12T03:07:00;100281.03;;;23.04;41.64
22000;BME280;11164;48.818;2.322;2023-09-12T03:09:25;100276.16;;;22.96;41.87
22000;BME280;11164;48.818;2.322;2023-09-12T03:11:50;100278.34;;;22.64;42.21
22000;BME280;11164;48.818;2.322;2023-09-12T03:14:16;100267.03;;;22.71;42.22
22000;BME280;11164;48.818;2.322;2023-09-12T03:16:41;100291.69;;;22.81;41.87
22000;BME280;11164;48.818;2.322;2023-09-12T03:19:06;100290.72;;;22.67;42.26
22000;BME280;11164;48.818;2.322;2023-09-12T03:21:32;100288.53;;;22.59;42.55
22000;BME280;11164;48.818;2.322;2023-09-12T03:23:57;100284.78;;;22.49;42.84
22000;BME280;11164;48.818;2.322;2023-09-12T03:26:22;100301.19;;;22.60;42.33
22000;BME280;11164;48.818;2.322;2023-09-12T03:28:49;100292.97;;;22.55;42.54
22000;BME280;11164;48.818;2.322;2023-09-12T03:31:15;100301.50;;;22.53;42.74
22000;BME280;11164;48.818;2.322;2023-09-12T03:33:41;100300.47;;;22.44;42.96
22000;BME280;11164;48.818;2.322;2023-09-12T03:36:07;100301.16;;;22.25;43.07
22000;BME280;11164;48.818;2.322;2023-09-12T03:38:33;100301.91;;;22.36;43.00
22000;BME280;11164;48.818;2.322;2023-09-12T03:40:59;100307.88;;;22.43;42.85
22000;BME280;11164;48.818;2.322;2023-09-12T03:43:25;100312.50;;;22.53;42.73
22000;BME280;11164;48.818;2.322;2023-09-12T03:45:50;100309.47;;;22.55;42.80
22000;BME280;11164;48.818;2.322;2023-09-12T03:48:15;100320.22;;;22.51;42.83
22000;BME280;11164;48.818;2.322;2023-09-12T03:50:41;100315.56;;;22.46;43.04
22000;BME280;11164;48.818;2.322;2023-09-12T03:53:06;100319.75;;;22.78;42.57
22000;BME280;11164;48.818;2.322;2023-09-12T03:55:31;100322.59;;;22.63;42.81
22000;BME280;11164;48.818;2.322;2023-09-12T03:57:57;100328.50;;;22.46;42.66
22000;BME280;11164;48.818;2.322;2023-09-12T04:00:22;100331.41;;;22.60;42.83
22000;BME280;11164;48.818;2.322;2023-09-12T04:02:48;100314.47;;;22.47;43.08
22000;BME280;11164;48.818;2.322;2023-09-12T04:05:14;100318.63;;;22.40;42.91
22000;BME280;11164;48.818;2.322;2023-09-12T04:07:39;100307.97;;;22.33;43.34
22000;BME280;11164;48.818;2.322;2023-09-12T04:10:05;100287.13;;;22.27;43.20
22000;BME280;11164;48.818;2.322;2023-09-12T04:12:30;100302.03;;;22.55;42.97
22000;BME280;11164;48.818;2.322;2023-09-12T04:14:56;100302.56;;;22.57;42.65
22000;BME280;11164;48.818;2.322;2023-09-12T04:17:21;100306.69;;;22.60;42.86
22000;BME280;11164;48.818;2.322;2023-09-12T04:19:46;100304.03;;;22.44;43.14
22000;BME280;11164;48.818;2.322;2023-09-12T04:22:12;100303.09;;;22.59;43.09
22000;BME280;11164;48.818;2.322;2023-09-12T04:24:37;100312.41;;;22.68;42.71
22000;BME280;11164;48.818;2.322;2023-09-12T04:27:03;100319.88;;;22.58;43.02
22000;BME280;11164;48.818;2.322;2023-09-12T04:29:28;100314.94;;;22.60;43.06
22000;BME280;11164;48.818;2.322;2023-09-12T04:31:54;100321.03;;;22.52;43.29
22000;BME280;11164;48.818;2.322;2023-09-12T04:34:27;100313.97;;;22.35;43.39
22000;BME280;11164;48.818;2.322;2023-09-12T04:36:53;100333.56;;;22.28;43.71
22000;BME280;11164;48.818;2.322;2023-09-12T04:39:18;100330.44;;;22.40;43.70
22000;BME280;11164;48.818;2.322;2023-09-12T04:41:44;100338.66;;;22.40;43.31
22000;BME280;11164;48.818;2.322;2023-09-12T04:44:10;100331.34;;;22.30;43.35
22000;BME280;11164;48.818;2.322;2023-09-12T04:46:35;100333.59;;;22.18;43.70
22000;BME280;11164;48.818;2.322;2023-09-12T04:49:01;100333.13;;;22.06;44.10
22000;BME280;11164;48.818;2.322;2023-09-12T04:51:26;100337.00;;;21.89;44.08
22000;BME280;11164;48.818;2.322;2023-09-12T04:53:52;100341.13;;;21.97;43.99
22000;BME280;11164;48.818;2.322;2023-09-12T04:56:18;100335.91;;;21.96;44.15
22000;BME280;11164;48.818;2.322;2023-09-12T04:58:43;100339.75;;;21.89;44.10
22000;BME280;11164;48.818;2.322;2023-09-12T05:01:08;100331.25;;;21.96;44.27
22000;BME280;11164;48.818;2.322;2023-09-12T05:03:34;100322.75;;;21.87;44.55
22000;BME280;11164;48.818;2.322;2023-09-12T05:06:00;100326.03;;;21.89;44.46
22000;BME280;11164;48.818;2.322;2023-09-12T05:08:25;100326.28;;;21.88;44.31
22000;BME280;11164;48.818;2.322;2023-09-12T05:10:51;100329.31;;;21.86;44.35
22000;BME280;11164;48.818;2.322;2023-09-12T05:13:16;100327.66;;;21.90;44.15
22000;BME280;11164;48.818;2.322;2023-09-12T05:15:42;100342.81;;;21.78;44.65
22000;BME280;11164;48.818;2.322;2023-09-12T05:18:07;100345.00;;;21.75;44.38
22000;BME280;11164;48.818;2.322;2023-09-12T05:20:33;100356.50;;;21.83;44.33
22000;BME280;11164;48.818;2.322;2023-09-12T05:22:59;100358.97;;;21.84;44.23
22000;BME280;11164;48.818;2.322;2023-09-12T05:25:24;100360.66;;;21.80;44.64
22000;BME280;11164;48.818;2.322;2023-09-12T05:27:51;100353.75;;;21.88;44.58
22000;BME280;11164;48.818;2.322;2023-09-12T05:30:17;100347.16;;;21.99;44.13
22000;BME280;11164;48.818;2.322;2023-09-12T05:32:42;100346.00;;;22.05;44.13
22000;BME280;11164;48.818;2.322;2023-09-12T05:35:08;100350.13;;;22.08;44.06
22000;BME280;11164;48.818;2.322;2023-09-12T05:37:33;100338.88;;;22.09;44.04
22000;BME280;11164;48.818;2.322;2023-09-12T05:39:59;100343.22;;;22.16;44.00
22000;BME280;11164;48.818;2.322;2023-09-12T05:42:24;100351.50;;;22.05;44.40
22000;BME280;11164;48.818;2.322;2023-09-12T05:44:50;100352.38;;;21.96;44.22
22000;BME280;11164;48.818;2.322;2023-09-12T05:47:20;100341.09;;;22.02;44.37
22000;BME280;11164;48.818;2.322;2023-09-12T05:49:45;100340.63;;;22.35;44.13
22000;BME280;11164;48.818;2.322;2023-09-12T05:52:11;100342.41;;;22.60;43.61
22000;BME280;11164;48.818;2.322;2023-09-12T05:54:36;100339.22;;;22.42;44.00
22000;BME280;11164;48.818;2.322;2023-09-12T05:57:02;100340.63;;;22.35;43.89
22000;BME280;11164;48.818;2.322;2023-09-12T05:59:28;100347.78;;;22.36;44.23
22000;BME280;11164;48.818;2.322;2023-09-12T06:01:53;100349.97;;;22.39;44.34
22000;BME280;11164;48.818;2.322;2023-09-12T06:04:18;100359.13;;;22.19;44.41
22000;BME280;11164;48.818;2.322;2023-09-12T06:06:45;100353.06;;;22.22;44.50
22000;BME280;11164;48.818;2.322;2023-09-12T06:09:11;100362.63;;;22.29;44.51
22000;BME280;11164;48.818;2.322;2023-09-12T06:11:36;100364.47;;;22.44;44.13
22000;BME280;11164;48.818;2.322;2023-09-12T06:14:01;100371.50;;;22.66;43.86
22000;BME280;11164;48.818;2.322;2023-09-12T06:16:27;100362.34;;;22.81;43.94
22000;BME280;11164;48.818;2.322;2023-09-12T06:18:52;100357.31;;;22.88;43.44
22000;BME280;11164;48.818;2.322;2023-09-12T06:21:19;100359.19;;;22.98;43.68
22000;BME280;11164;48.818;2.322;2023-09-12T06:23:46;100358.75;;;22.80;43.66
22000;BME280;11164;48.818;2.322;2023-09-12T06:26:13;100374.25;;;22.61;44.41
22000;BME280;11164;48.818;2.322;2023-09-12T06:28:40;100362.97;;;22.67;44.17
22000;BME280;11164;48.818;2.322;2023-09-12T06:31:08;100375.56;;;22.79;44.09
22000;BME280;11164;48.818;2.322;2023-09-12T06:33:34;100380.06;;;22.54;44.48
22000;BME280;11164;48.818;2.322;2023-09-12T06:36:00;100377.88;;;22.56;44.05
22000;BME280;11164;48.818;2.322;2023-09-12T06:38:26;100374.06;;;22.92;43.96
22000;BME280;11164;48.818;2.322;2023-09-12T06:40:51;100370.03;;;23.13;43.16
22000;BME280;11164;48.818;2.322;2023-09-12T06:43:17;100370.94;;;23.38;43.16
22000;BME280;11164;48.818;2.322;2023-09-12T06:45:43;100360.75;;;23.38;43.23
22000;BME280;11164;48.818;2.322;2023-09-12T06:48:08;100361.38;;;23.25;43.34
22000;BME280;11164;48.818;2.322;2023-09-12T06:50:34;100363.44;;;23.43;42.91
22000;BME280;11164;48.818;2.322;2023-09-12T06:52:59;100367.03;;;23.68;42.70
22000;BME280;11164;48.818;2.322;2023-09-12T06:55:27;100368.03;;;23.53;42.77
22000;BME280;11164;48.818;2.322;2023-09-12T06:57:53;100360.66;;;23.73;42.83
22000;BME280;11164;48.818;2.322;2023-09-12T07:00:18;100352.28;;;23.83;42.38
22000;BME280;11164;48.818;2.322;2023-09-12T07:02:43;100365.50;;;23.81;42.56
22000;BME280;11164;48.818;2.322;2023-09-12T07:05:09;100360.31;;;23.79;42.64
22000;BME280;11164;48.818;2.322;2023-09-12T07:07:34;100364.50;;;23.72;42.64
22000;BME280;11164;48.818;2.322;2023-09-12T07:10:01;100375.97;;;23.26;43.55
22000;BME280;11164;48.818;2.322;2023-09-12T07:12:26;100377.91;;;22.91;43.84
22000;BME280;11164;48.818;2.322;2023-09-12T07:14:54;100371.41;;;22.81;43.99
22000;BME280;11164;48.818;2.322;2023-09-12T07:17:19;100374.59;;;22.94;44.06
22000;BME280;11164;48.818;2.322;2023-09-12T07:19:44;100375.31;;;22.75;44.21
22000;BME280;11164;48.818;2.322;2023-09-12T07:22:10;100362.44;;;22.60;44.11
22000;BME280;11164;48.818;2.322;2023-09-12T07:24:35;100369.69;;;22.85;43.82
22000;BME280;11164;48.818;2.322;2023-09-12T07:27:00;100380.69;;;22.85;43.78
22000;BME280;11164;48.818;2.322;2023-09-12T07:29:26;100388.72;;;22.77;43.85
22000;BME280;11164;48.818;2.322;2023-09-12T07:31:52;100375.63;;;22.68;44.21
22000;BME280;11164;48.818;2.322;2023-09-12T07:34:19;100385.88;;;22.92;43.69
22000;BME280;11164;48.818;2.322;2023-09-12T07:36:44;100389.75;;;23.26;42.94
22000;BME280;11164;48.818;2.322;2023-09-12T07:39:09;100396.47;;;23.43;42.94
22000;BME280;11164;48.818;2.322;2023-09-12T07:41:36;100393.03;;;23.81;42.59
22000;BME280;11164;48.818;2.322;2023-09-12T07:44:01;100391.66;;;23.54;43.04
22000;BME280;11164;48.818;2.322;2023-09-12T07:46:31;100388.59;;;23.61;42.49
22000;BME280;11164;48.818;2.322;2023-09-12T07:48:56;100385.22;;;23.40;42.84
22000;BME280;11164;48.818;2.322;2023-09-12T07:51:22;100386.72;;;23.22;43.35
22000;BME280;11164;48.818;2.322;2023-09-12T07:53:48;100389.63;;;23.07;43.51
22000;BME280;11164;48.818;2.322;2023-09-12T07:56:13;100391.63;;;22.96;43.69
22000;BME280;11164;48.818;2.322;2023-09-12T07:58:38;100389.13;;;22.99;43.70
22000;BME280;11164;48.818;2.322;2023-09-12T08:01:08;100392.47;;;22.96;43.84
22000;BME280;11164;48.818;2.322;2023-09-12T08:03:35;100393.09;;;23.17;43.59
22000;BME280;11164;48.818;2.322;2023-09-12T08:06:01;100389.59;;;23.12;43.74
22000;BME280;11164;48.818;2.322;2023-09-12T08:08:27;100389.16;;;22.94;43.77
22000;BME280;11164;48.818;2.322;2023-09-12T08:10:52;100388.22;;;22.75;44.17
22000;BME280;11164;48.818;2.322;2023-09-12T08:13:17;100391.31;;;22.63;43.93
22000;BME280;11164;48.818;2.322;2023-09-12T08:15:43;100391.53;;;22.72;43.79
22000;BME280;11164;48.818;2.322;2023-09-12T08:18:08;100404.19;;;22.67;43.77
22000;BME280;11164;48.818;2.322;2023-09-12T08:20:33;100406.09;;;22.72;43.68
22000;BME280;11164;48.818;2.322;2023-09-12T08:22:59;100410.69;;;22.37;44.56
22000;BME280;11164;48.818;2.322;2023-09-12T08:25:24;100413.94;;;22.44;44.02
22000;BME280;11164;48.818;2.322;2023-09-12T08:27:50;100408.34;;;22.60;43.96
22000;BME280;11164;48.818;2.322;2023-09-12T08:30:15;100406.63;;;22.74;43.92
22000;BME280;11164;48.818;2.322;2023-09-12T08:32:41;100403.88;;;22.74;43.65
22000;BME280;11164;48.818;2.322;2023-09-12T08:35:13;100409.00;;;22.91;43.76
22000;BME280;11164;48.818;2.322;2023-09-12T08:37:39;100403.13;;;23.03;43.30
22000;BME280;11164;48.818;2.322;2023-09-12T08:40:06;100412.44;;;23.07;43.39
22000;BME280;11164;48.818;2.322;2023-09-12T08:42:38;100417.28;;;23.20;43.27
22000;BME280;11164;48.818;2.322;2023-09-12T08:45:11;100418.63;;;23.23;43.04
22000;BME280;11164;48.818;2.322;2023-09-12T08:47:39;100427.91;;;22.98;43.41
22000;BME280;11164;48.818;2.322;2023-09-12T08:50:07;100416.44;;;23.20;43.23
22000;BME280;11164;48.818;2.322;2023-09-12T08:52:34;100423.13;;;23.14;43.09
22000;BME280;11164;48.818;2.322;2023-09-12T08:54:59;100409.94;;;23.11;43.47
22000;BME280;11164;48.818;2.322;2023-09-12T08:57:25;100421.28;;;22.99;43.44
22000;BME280;11164;48.818;2.322;2023-09-12T08:59:51;100418.09;;;22.86;43.41
22000;BME280;11164;48.818;2.322;2023-09-12T09:02:17;100421.28;;;22.99;43.64
22000;BME280;11164;48.818;2.322;2023-09-12T09:04:42;100411.91;;;23.05;43.02
22000;BME280;11164;48.818;2.322;2023-09-12T09:07:11;100412.69;;;23.11;43.03
22000;BME280;11164;48.818;2.322;2023-09-12T09:09:38;100414.63;;;23.10;43.34
22000;BME280;11164;48.818;2.322;2023-09-12T09:12:07;100422.66;;;23.01;43.48
22000;BME280;11164;48.818;2.322;2023-09-12T09:14:32;100423.63;;;22.81;43.55
22000;BME280;11164;48.818;2.322;2023-09-12T09:16:58;100420.16;;;22.65;43.61
22000;BME280;11164;48.818;2.322;2023-09-12T09:19:40;100420.25;;;22.40;45.07
22000;BME280;11164;48.818;2.322;2023-09-12T09:22:07;100420.34;;;22.24;44.25
22000;BME280;11164;48.818;2.322;2023-09-12T09:24:32;100416.78;;;22.24;44.30
22000;BME280;11164;48.818;2.322;2023-09-12T09:26:57;100405.34;;;22.56;43.47
22000;BME280;11164;48.818;2.322;2023-09-12T09:29:26;100417.38;;;22.71;43.29
22000;BME280;11164;48.818;2.322;2023-09-12T09:31:53;100409.41;;;22.69;43.78
22000;BME280;11164;48.818;2.322;2023-09-12T09:34:20;100411.72;;;22.46;44.22
22000;BME280;11164;48.818;2.322;2023-09-12T09:36:54;100411.13;;;22.55;44.08
22000;BME280;11164;48.818;2.322;2023-09-12T09:39:22;100411.69;;;22.52;43.65
22000;BME280;11164;48.818;2.322;2023-09-12T09:41:48;100419.94;;;22.52;43.89
22000;BME280;11164;48.818;2.322;2023-09-12T09:44:14;100420.22;;;22.50;43.82
22000;BME280;11164;48.818;2.322;2023-09-12T09:46:43;100430.69;;;22.43;43.96
22000;BME280;11164;48.818;2.322;2023-09-12T09:49:15;100427.91;;;22.48;44.31
22000;BME280;11164;48.818;2.322;2023-09-12T09:51:41;100442.56;;;22.28;43.60
22000;BME280;11164;48.818;2.322;2023-09-12T09:54:08;100449.81;;;21.78;43.80
22000;BME280;11164;48.818;2.322;2023-09-12T09:56:44;100463.56;;;21.21;47.72
22000;BME280;11164;48.818;2.322;2023-09-12T09:59:14;100474.22;;;20.87;45.07
22000;BME280;11164;48.818;2.322;2023-09-12T10:01:40;100475.56;;;20.84;45.42
22000;BME280;11164;48.818;2.322;2023-09-12T10:04:07;100484.06;;;20.19;47.04
22000;BME280;11164;48.818;2.322;2023-09-12T10:06:35;100487.31;;;20.16;47.28
22000;BME280;11164;48.818;2.322;2023-09-12T10:09:06;100495.22;;;20.08;48.79
22000;BME280;11164;48.818;2.322;2023-09-12T10:11:33;100491.41;;;19.71;48.46
22000;BME280;11164;48.818;2.322;2023-09-12T10:14:00;100491.25;;;19.83;47.92
22000;BME280;11164;48.818;2.322;2023-09-12T10:16:32;100486.44;;;20.00;48.55
22000;BME280;11164;48.818;2.322;2023-09-12T10:18:59;100492.47;;;20.08;47.61
22000;BME280;11164;48.818;2.322;2023-09-12T10:21:30;100495.72;;;19.94;48.01
22000;BME280;11164;48.818;2.322;2023-09-12T10:23:59;100489.91;;;19.85;48.02
22000;BME280;11164;48.818;2.322;2023-09-12T10:26:26;100495.16;;;19.97;47.45
22000;BME280;11164;48.818;2.322;2023-09-12T10:28:52;100497.69;;;20.09;47.46
22000;BME280;11164;48.818;2.322;2023-09-12T10:31:17;100495.47;;;20.01;47.62
22000;BME280;11164;48.818;2.322;2023-09-12T10:33:44;100489.50;;;20.14;47.85
22000;BME280;11164;48.818;2.322;2023-09-12T10:36:12;100479.16;;;20.27;47.61
22000;BME280;11164;48.818;2.322;2023-09-12T10:38:42;100474.84;;;20.36;47.82
22000;BME280;11164;48.818;2.322;2023-09-12T10:41:12;100470.44;;;20.35;48.48
22000;BME280;11164;48.818;2.322;2023-09-12T10:43:43;100466.03;;;20.23;48.38
22000;BME280;11164;48.818;2.322;2023-09-12T10:46:12;100478.66;;;20.30;48.82
22000;BME280;11164;48.818;2.322;2023-09-12T10:48:37;100459.63;;;20.08;49.21
22000;BME280;11164;48.818;2.322;2023-09-12T10:51:06;100461.84;;;20.11;49.35
22000;BME280;11164;48.818;2.322;2023-09-12T10:53:32;100460.38;;;19.87;49.91
22000;BME280;11164;48.818;2.322;2023-09-12T10:56:20;100454.34;;;19.85;54.53
22000;BME280;11164;48.818;2.322;2023-09-12T11:01:30;100445.22;;;19.80;50.42
22000;BME280;11164;48.818;2.322;2023-09-12T11:03:55;100444.50;;;19.90;50.41
22000;BME280;11164;48.818;2.322;2023-09-12T11:06:24;100430.50;;;19.81;50.39
22000;BME280;11164;48.818;2.322;2023-09-12T11:09:21;100448.66;;;20.02;51.26
22000;BME280;11164;48.818;2.322;2023-09-12T11:12:08;100458.81;;;20.07;54.46
22000;BME280;11164;48.818;2.322;2023-09-12T11:15:03;100460.53;;;20.18;52.09
22000;BME280;11164;48.818;2.322;2023-09-12T11:17:39;100454.97;;;19.98;51.02
22000;BME280;11164;48.818;2.322;2023-09-12T11:20:06;100465.97;;;20.13;50.39
22000;BME280;11164;48.818;2.322;2023-09-12T11:22:40;100465.72;;;20.20;50.42
22000;BME280;11164;48.818;2.322;2023-09-12T11:25:20;100455.03;;;20.13;53.64
22000;BME280;11164;48.818;2.322;2023-09-12T11:30:17;100468.28;;;20.42;50.63
22000;BME280;11164;48.818;2.322;2023-09-12T11:32:45;100464.91;;;20.19;50.66
22000;BME280;11164;48.818;2.322;2023-09-12T11:35:11;100461.88;;;20.16;51.00
22000;BME280;11164;48.818;2.322;2023-09-12T11:37:38;100458.81;;;20.07;51.31
22000;BME280;11164;48.818;2.322;2023-09-12T11:42:57;100461.44;;;20.34;50.90
22000;BME280;11164;48.818;2.322;2023-09-12T11:45:23;100453.19;;;20.29;51.42
22000;BME280;11164;48.818;2.322;2023-09-12T11:47:49;100458.47;;;20.46;50.93
22000;BME280;11164;48.818;2.322;2023-09-12T11:50:33;100447.22;;;20.53;55.35
22000;BME280;11164;48.818;2.322;2023-09-12T11:53:08;100438.72;;;20.44;52.04
22000;BME280;11164;48.818;2.322;2023-09-12T11:55:37;100433.50;;;20.37;51.68
22000;BME280;11164;48.818;2.322;2023-09-12T11:58:03;100425.03;;;20.49;51.34
22000;BME280;11164;48.818;2.322;2023-09-12T12:00:29;100431.41;;;20.55;51.34
22000;BME280;11164;48.818;2.322;2023-09-12T12:02:55;100427.28;;;20.57;51.76
22000;BME280;11164;48.818;2.322;2023-09-12T12:05:22;100430.88;;;20.68;51.84
22000;BME280;11164;48.818;2.322;2023-09-12T12:07:48;100427.88;;;20.75;51.83
22000;BME280;11164;48.818;2.322;2023-09-12T12:10:14;100428.69;;;20.75;51.85
22000;BME280;11164;48.818;2.322;2023-09-12T12:12:39;100429.25;;;20.77;51.85
22000;BME280;11164;48.818;2.322;2023-09-12T12:15:10;100421.31;;;21.12;52.79
22000;BME280;11164;48.818;2.322;2023-09-12T12:17:36;100431.50;;;21.42;51.44
22000;BME280;11164;48.818;2.322;2023-09-12T12:20:02;100433.34;;;21.88;51.80
22000;BME280;11164;48.818;2.322;2023-09-12T12:22:35;100423.31;;;22.33;51.14
22000;BME280;11164;48.818;2.322;2023-09-12T12:25:08;100424.78;;;22.15;53.37
22000;BME280;11164;48.818;2.322;2023-09-12T12:27:41;100421.69;;;22.32;52.75
22000;BME280;11164;48.818;2.322;2023-09-12T12:30:11;100427.63;;;22.49;52.53
22000;BME280;11164;48.818;2.322;2023-09-12T12:32:42;100435.38;;;22.42;52.91
22000;BME280;11164;48.818;2.322;2023-09-12T12:35:09;100435.13;;;22.39;52.35
22000;BME280;11164;48.818;2.322;2023-09-12T12:37:36;100438.00;;;22.08;52.94
22000;BME280;11164;48.818;2.322;2023-09-12T12:40:02;100454.50;;;21.82;53.52
22000;BME280;11164;48.818;2.322;2023-09-12T12:42:37;100456.97;;;21.84;53.70
22000;BME280;11164;48.818;2.322;2023-09-12T12:45:20;100459.72;;;21.84;53.90
22000;BME280;11164;48.818;2.322;2023-09-12T12:47:46;100461.41;;;21.64;53.13
22000;BME280;11164;48.818;2.322;2023-09-12T12:50:12;100447.44;;;21.35;53.50
22000;BME280;11164;48.818;2.322;2023-09-12T12:52:38;100447.94;;;21.22;53.45
22000;BME280;11164;48.818;2.322;2023-09-12T12:55:05;100439.69;;;21.11;53.75
22000;BME280;11164;48.818;2.322;2023-09-12T12:57:31;100457.56;;;21.34;53.35
22000;BME280;11164;48.818;2.322;2023-09-12T12:59:58;100450.72;;;21.32;53.48
22000;BME280;11164;48.818;2.322;2023-09-12T13:02:23;100456.47;;;21.51;53.08
22000;BME280;11164;48.818;2.322;2023-09-12T13:04:48;100453.19;;;21.54;52.90